sensor_id;sensor_type;location;lat;lon;timestamp;temperature;humidity
40932;DHT22;36257;46.052;12.540;2022-09-09T00:01:55;20.20;96.90
40932;DHT22;36257;46.052;12.540;2022-09-09T00:04:29;20.20;96.80
40932;DHT22;36257;46.052;12.540;2022-09-09T00:09:39;20.10;96.90
40932;DHT22;36257;46.052;12.540;2022-09-09T00:17:47;20.20;97.20
40932;DHT22;36257;46.052;12.540;2022-09-09T00:22:56;20.10;97.50
40932;DHT22;36257;46.052;12.540;2022-09-09T00:25:40;20.10;97.60
40932;DHT22;36257;46.052;12.540;2022-09-09T00:28:20;20.00;98.00
40932;DHT22;36257;46.052;12.540;2022-09-09T00:30:48;20.00;98.30
40932;DHT22;36257;46.052;12.540;2022-09-09T00:33:16;20.00;98.30
40932;DHT22;36257;46.052;12.540;2022-09-09T00:36:13;20.00;98.10
40932;DHT22;36257;46.052;12.540;2022-09-09T00:38:47;19.90;98.50
40932;DHT22;36257;46.052;12.540;2022-09-09T00:43:41;19.90;98.80
40932;DHT22;36257;46.052;12.540;2022-09-09T00:52:22;19.90;99.40
40932;DHT22;36257;46.052;12.540;2022-09-09T00:56:00;19.90;99.60
40932;DHT22;36257;46.052;12.540;2022-09-09T00:57:52;20.00;99.70
40932;DHT22;36257;46.052;12.540;2022-09-09T01:08:02;20.20;98.70
40932;DHT22;36257;46.052;12.540;2022-09-09T01:10:39;20.20;98.40
40932;DHT22;36257;46.052;12.540;2022-09-09T01:13:17;20.30;98.30
40932;DHT22;36257;46.052;12.540;2022-09-09T01:15:44;20.30;97.80
40932;DHT22;36257;46.052;12.540;2022-09-09T01:18:14;20.30;97.20
40932;DHT22;36257;46.052;12.540;2022-09-09T01:24:38;20.40;96.80
40932;DHT22;36257;46.052;12.540;2022-09-09T01:26:54;20.40;96.40
40932;DHT22;36257;46.052;12.540;2022-09-09T01:29:22;20.40;96.80
40932;DHT22;36257;46.052;12.540;2022-09-09T01:34:17;20.30;97.70
40932;DHT22;36257;46.052;12.540;2022-09-09T01:36:56;20.30;97.60
40932;DHT22;36257;46.052;12.540;2022-09-09T01:39:23;20.30;97.70
40932;DHT22;36257;46.052;12.540;2022-09-09T01:41:49;20.30;97.90
40932;DHT22;36257;46.052;12.540;2022-09-09T01:44:15;20.30;97.90
40932;DHT22;36257;46.052;12.540;2022-09-09T01:46:40;20.30;98.00
40932;DHT22;36257;46.052;12.540;2022-09-09T01:49:07;20.30;97.80
40932;DHT22;36257;46.052;12.540;2022-09-09T01:51:35;20.30;98.00
40932;DHT22;36257;46.052;12.540;2022-09-09T01:54:02;20.30;98.40
40932;DHT22;36257;46.052;12.540;2022-09-09T01:59:41;20.20;98.60
40932;DHT22;36257;46.052;12.540;2022-09-09T02:02:21;20.20;98.40
40932;DHT22;36257;46.052;12.540;2022-09-09T02:04:58;20.20;98.10
40932;DHT22;36257;46.052;12.540;2022-09-09T02:07:43;20.20;98.30
40932;DHT22;36257;46.052;12.540;2022-09-09T02:10:16;20.20;98.60
40932;DHT22;36257;46.052;12.540;2022-09-09T02:12:47;20.20;99.10
40932;DHT22;36257;46.052;12.540;2022-09-09T02:15:35;20.20;99.50
40932;DHT22;36257;46.052;12.540;2022-09-09T02:18:07;20.20;99.90
40932;DHT22;36257;46.052;12.540;2022-09-09T02:20:36;20.20;99.70
40932;DHT22;36257;46.052;12.540;2022-09-09T02:23:04;20.30;98.80
40932;DHT22;36257;46.052;12.540;2022-09-09T02:25:30;20.30;98.70
40932;DHT22;36257;46.052;12.540;2022-09-09T02:27:56;20.30;98.50
40932;DHT22;36257;46.052;12.540;2022-09-09T02:30:24;20.30;98.60
40932;DHT22;36257;46.052;12.540;2022-09-09T02:32:52;20.30;98.80
40932;DHT22;36257;46.052;12.540;2022-09-09T02:35:23;20.30;98.90
40932;DHT22;36257;46.052;12.540;2022-09-09T02:37:51;20.30;99.00
40932;DHT22;36257;46.052;12.540;2022-09-09T02:40:18;20.30;99.00
40932;DHT22;36257;46.052;12.540;2022-09-09T02:42:46;20.30;99.20
40932;DHT22;36257;46.052;12.540;2022-09-09T02:45:18;20.30;99.20
40932;DHT22;36257;46.052;12.540;2022-09-09T02:48:07;20.30;99.10
40932;DHT22;36257;46.052;12.540;2022-09-09T02:50:47;20.30;99.30
40932;DHT22;36257;46.052;12.540;2022-09-09T02:53:26;20.30;99.40
40932;DHT22;36257;46.052;12.540;2022-09-09T02:56:04;20.30;99.40
40932;DHT22;36257;46.052;12.540;2022-09-09T02:58:31;20.30;99.50
40932;DHT22;36257;46.052;12.540;2022-09-09T03:00:57;20.20;99.70
40932;DHT22;36257;46.052;12.540;2022-09-09T03:03:23;20.20;99.90
40932;DHT22;36257;46.052;12.540;2022-09-09T03:05:50;20.10;99.90
40932;DHT22;36257;46.052;12.540;2022-09-09T03:08:16;20.10;99.90
40932;DHT22;36257;46.052;12.540;2022-09-09T03:10:42;20.10;99.90
40932;DHT22;36257;46.052;12.540;2022-09-09T03:13:08;20.10;99.90
40932;DHT22;36257;46.052;12.540;2022-09-09T03:15:34;20.10;99.90
40932;DHT22;36257;46.052;12.540;2022-09-09T03:18:01;20.10;99.80
40932;DHT22;36257;46.052;12.540;2022-09-09T03:20:28;20.10;99.40
40932;DHT22;36257;46.052;12.540;2022-09-09T03:22:54;20.10;99.40
40932;DHT22;36257;46.052;12.540;2022-09-09T03:25:20;20.10;99.40
40932;DHT22;36257;46.052;12.540;2022-09-09T03:27:49;20.10;99.50
40932;DHT22;36257;46.052;12.540;2022-09-09T03:30:15;20.20;99.50
40932;DHT22;36257;46.052;12.540;2022-09-09T03:32:41;20.20;99.70
40932;DHT22;36257;46.052;12.540;2022-09-09T03:35:07;20.20;99.70
40932;DHT22;36257;46.052;12.540;2022-09-09T03:37:33;20.20;99.40
40932;DHT22;36257;46.052;12.540;2022-09-09T03:39:59;20.20;98.60
40932;DHT22;36257;46.052;12.540;2022-09-09T03:42:25;20.20;98.30
40932;DHT22;36257;46.052;12.540;2022-09-09T03:44:51;20.30;98.10
40932;DHT22;36257;46.052;12.540;2022-09-09T03:47:21;20.20;98.00
40932;DHT22;36257;46.052;12.540;2022-09-09T03:49:49;20.30;97.70
40932;DHT22;36257;46.052;12.540;2022-09-09T03:52:15;20.20;97.60
40932;DHT22;36257;46.052;12.540;2022-09-09T03:54:41;20.20;97.70
40932;DHT22;36257;46.052;12.540;2022-09-09T03:57:09;20.20;97.80
40932;DHT22;36257;46.052;12.540;2022-09-09T03:59:35;20.20;98.00
40932;DHT22;36257;46.052;12.540;2022-09-09T04:02:01;20.20;98.00
40932;DHT22;36257;46.052;12.540;2022-09-09T04:04:27;20.20;97.90
40932;DHT22;36257;46.052;12.540;2022-09-09T04:06:53;20.10;98.20
40932;DHT22;36257;46.052;12.540;2022-09-09T04:09:19;20.20;98.20
40932;DHT22;36257;46.052;12.540;2022-09-09T04:11:44;20.20;98.00
40932;DHT22;36257;46.052;12.540;2022-09-09T04:14:11;20.20;97.50
40932;DHT22;36257;46.052;12.540;2022-09-09T04:16:40;20.20;97.10
40932;DHT22;36257;46.052;12.540;2022-09-09T04:19:08;20.20;96.70
40932;DHT22;36257;46.052;12.540;2022-09-09T04:21:33;20.20;96.80
40932;DHT22;36257;46.052;12.540;2022-09-09T04:23:59;20.20;97.10
40932;DHT22;36257;46.052;12.540;2022-09-09T04:26:25;20.20;97.60
40932;DHT22;36257;46.052;12.540;2022-09-09T04:28:50;20.30;97.50
40932;DHT22;36257;46.052;12.540;2022-09-09T04:31:21;20.30;98.30
40932;DHT22;36257;46.052;12.540;2022-09-09T04:33:49;20.30;99.40
40932;DHT22;36257;46.052;12.540;2022-09-09T04:36:15;20.30;99.90
40932;DHT22;36257;46.052;12.540;2022-09-09T04:38:41;20.30;99.90
40932;DHT22;36257;46.052;12.540;2022-09-09T04:41:07;20.30;99.90
40932;DHT22;36257;46.052;12.540;2022-09-09T04:43:33;20.30;99.90
40932;DHT22;36257;46.052;12.540;2022-09-09T04:45:59;20.30;99.90
40932;DHT22;36257;46.052;12.540;2022-09-09T04:48:26;20.30;99.90
40932;DHT22;36257;46.052;12.540;2022-09-09T04:50:59;20.30;99.90
40932;DHT22;36257;46.052;12.540;2022-09-09T04:53:26;20.30;99.90
40932;DHT22;36257;46.052;12.540;2022-09-09T04:56:22;20.40;99.90
40932;DHT22;36257;46.052;12.540;2022-09-09T04:58:47;20.40;99.80
40932;DHT22;36257;46.052;12.540;2022-09-09T05:01:18;20.40;99.50
40932;DHT22;36257;46.052;12.540;2022-09-09T05:03:45;20.50;99.10
40932;DHT22;36257;46.052;12.540;2022-09-09T05:06:13;20.60;98.90
40932;DHT22;36257;46.052;12.540;2022-09-09T05:08:40;20.60;98.80
40932;DHT22;36257;46.052;12.540;2022-09-09T05:13:45;20.80;98.80
40932;DHT22;36257;46.052;12.540;2022-09-09T05:16:12;20.90;98.60
40932;DHT22;36257;46.052;12.540;2022-09-09T05:18:39;21.00;98.10
40932;DHT22;36257;46.052;12.540;2022-09-09T05:21:05;21.10;98.00
40932;DHT22;36257;46.052;12.540;2022-09-09T05:23:32;21.10;97.70
40932;DHT22;36257;46.052;12.540;2022-09-09T05:25:59;21.20;97.20
40932;DHT22;36257;46.052;12.540;2022-09-09T05:28:26;21.40;96.60
40932;DHT22;36257;46.052;12.540;2022-09-09T05:30:58;21.40;96.90
40932;DHT22;36257;46.052;12.540;2022-09-09T05:33:26;21.60;96.20
40932;DHT22;36257;46.052;12.540;2022-09-09T05:36:03;21.60;96.00
40932;DHT22;36257;46.052;12.540;2022-09-09T05:38:30;21.70;95.80
40932;DHT22;36257;46.052;12.540;2022-09-09T05:40:56;21.80;95.80
40932;DHT22;36257;46.052;12.540;2022-09-09T05:43:23;21.90;95.50
40932;DHT22;36257;46.052;12.540;2022-09-09T05:46:00;22.00;95.30
40932;DHT22;36257;46.052;12.540;2022-09-09T05:48:30;22.20;93.80
40932;DHT22;36257;46.052;12.540;2022-09-09T05:50:56;22.40;93.40
40932;DHT22;36257;46.052;12.540;2022-09-09T05:53:22;22.60;93.10
40932;DHT22;36257;46.052;12.540;2022-09-09T05:55:47;22.70;92.70
40932;DHT22;36257;46.052;12.540;2022-09-09T05:58:13;22.90;92.10
40932;DHT22;36257;46.052;12.540;2022-09-09T06:00:40;23.00;91.50
40932;DHT22;36257;46.052;12.540;2022-09-09T06:03:06;23.10;91.30
40932;DHT22;36257;46.052;12.540;2022-09-09T06:05:32;23.20;90.50
40932;DHT22;36257;46.052;12.540;2022-09-09T06:07:58;23.20;90.20
40932;DHT22;36257;46.052;12.540;2022-09-09T06:10:23;23.30;89.20
40932;DHT22;36257;46.052;12.540;2022-09-09T06:12:52;23.30;89.20
40932;DHT22;36257;46.052;12.540;2022-09-09T06:15:18;23.30;89.10
40932;DHT22;36257;46.052;12.540;2022-09-09T06:17:43;23.40;88.20
40932;DHT22;36257;46.052;12.540;2022-09-09T06:20:10;23.40;88.40
40932;DHT22;36257;46.052;12.540;2022-09-09T06:22:36;23.30;88.70
40932;DHT22;36257;46.052;12.540;2022-09-09T06:25:04;23.10;87.70
40932;DHT22;36257;46.052;12.540;2022-09-09T06:27:30;23.10;88.10
40932;DHT22;36257;46.052;12.540;2022-09-09T06:29:56;23.00;87.90
40932;DHT22;36257;46.052;12.540;2022-09-09T06:32:21;23.00;88.20
40932;DHT22;36257;46.052;12.540;2022-09-09T06:34:47;22.90;88.70
40932;DHT22;36257;46.052;12.540;2022-09-09T06:37:14;22.80;89.10
40932;DHT22;36257;46.052;12.540;2022-09-09T06:39:40;22.80;90.00
40932;DHT22;36257;46.052;12.540;2022-09-09T06:42:06;22.80;90.10
40932;DHT22;36257;46.052;12.540;2022-09-09T06:44:33;22.70;90.80
40932;DHT22;36257;46.052;12.540;2022-09-09T06:46:59;22.70;93.50
40932;DHT22;36257;46.052;12.540;2022-09-09T06:49:25;22.70;94.60
40932;DHT22;36257;46.052;12.540;2022-09-09T06:51:50;22.60;95.80
40932;DHT22;36257;46.052;12.540;2022-09-09T06:54:17;22.50;96.20
40932;DHT22;36257;46.052;12.540;2022-09-09T06:56:43;22.50;96.50
40932;DHT22;36257;46.052;12.540;2022-09-09T06:59:11;22.40;96.90
40932;DHT22;36257;46.052;12.540;2022-09-09T07:01:42;22.30;97.20
40932;DHT22;36257;46.052;12.540;2022-09-09T07:04:12;22.20;96.00
40932;DHT22;36257;46.052;12.540;2022-09-09T07:06:41;22.20;96.60
40932;DHT22;36257;46.052;12.540;2022-09-09T07:09:10;22.10;97.80
40932;DHT22;36257;46.052;12.540;2022-09-09T07:11:42;22.20;99.30
40932;DHT22;36257;46.052;12.540;2022-09-09T07:14:08;22.10;99.40
40932;DHT22;36257;46.052;12.540;2022-09-09T07:16:34;22.20;98.80
40932;DHT22;36257;46.052;12.540;2022-09-09T07:19:03;22.10;99.50
40932;DHT22;36257;46.052;12.540;2022-09-09T07:21:31;22.10;98.40
40932;DHT22;36257;46.052;12.540;2022-09-09T07:23:57;22.20;97.90
40932;DHT22;36257;46.052;12.540;2022-09-09T07:26:27;22.20;97.00
40932;DHT22;36257;46.052;12.540;2022-09-09T07:28:54;22.20;97.20
40932;DHT22;36257;46.052;12.540;2022-09-09T07:31:30;22.30;97.10
40932;DHT22;36257;46.052;12.540;2022-09-09T07:33:57;22.40;96.80
40932;DHT22;36257;46.052;12.540;2022-09-09T07:36:25;22.60;96.70
40932;DHT22;36257;46.052;12.540;2022-09-09T07:38:56;22.80;97.90
40932;DHT22;36257;46.052;12.540;2022-09-09T07:41:28;23.00;98.50
40932;DHT22;36257;46.052;12.540;2022-09-09T07:43:55;23.20;97.00
40932;DHT22;36257;46.052;12.540;2022-09-09T07:46:23;23.40;95.60
40932;DHT22;36257;46.052;12.540;2022-09-09T07:48:54;23.60;93.40
40932;DHT22;36257;46.052;12.540;2022-09-09T07:51:33;23.70;90.50
40932;DHT22;36257;46.052;12.540;2022-09-09T07:54:01;23.70;91.80
40932;DHT22;36257;46.052;12.540;2022-09-09T07:56:27;23.60;89.70
40932;DHT22;36257;46.052;12.540;2022-09-09T07:58:55;23.50;91.60
40932;DHT22;36257;46.052;12.540;2022-09-09T08:03:58;23.60;90.30
40932;DHT22;36257;46.052;12.540;2022-09-09T08:06:29;23.90;91.40
40932;DHT22;36257;46.052;12.540;2022-09-09T08:08:55;24.10;90.10
40932;DHT22;36257;46.052;12.540;2022-09-09T08:11:23;24.10;91.50
40932;DHT22;36257;46.052;12.540;2022-09-09T08:13:50;24.20;92.30
40932;DHT22;36257;46.052;12.540;2022-09-09T08:16:19;24.40;88.70
40932;DHT22;36257;46.052;12.540;2022-09-09T08:18:47;24.40;88.40
40932;DHT22;36257;46.052;12.540;2022-09-09T08:21:35;24.70;87.70
40932;DHT22;36257;46.052;12.540;2022-09-09T08:24:02;24.80;87.30
40932;DHT22;36257;46.052;12.540;2022-09-09T08:26:30;24.80;86.80
40932;DHT22;36257;46.052;12.540;2022-09-09T08:28:58;24.80;87.60
40932;DHT22;36257;46.052;12.540;2022-09-09T08:31:27;24.50;87.90
40932;DHT22;36257;46.052;12.540;2022-09-09T08:33:56;24.20;87.00
40932;DHT22;36257;46.052;12.540;2022-09-09T08:36:24;24.00;88.00
40932;DHT22;36257;46.052;12.540;2022-09-09T08:38:52;23.90;87.10
40932;DHT22;36257;46.052;12.540;2022-09-09T08:47:14;24.00;88.30
40932;DHT22;36257;46.052;12.540;2022-09-09T08:50:00;24.10;88.00
40932;DHT22;36257;46.052;12.540;2022-09-09T08:57:51;24.10;84.90
40932;DHT22;36257;46.052;12.540;2022-09-09T09:00:18;24.00;85.00
40932;DHT22;36257;46.052;12.540;2022-09-09T09:10:47;23.80;84.50
40932;DHT22;36257;46.052;12.540;2022-09-09T09:13:17;23.90;85.40
40932;DHT22;36257;46.052;12.540;2022-09-09T09:15:44;23.90;85.40
40932;DHT22;36257;46.052;12.540;2022-09-09T09:18:13;23.80;84.80
40932;DHT22;36257;46.052;12.540;2022-09-09T09:21:21;23.80;84.20
40932;DHT22;36257;46.052;12.540;2022-09-09T09:23:36;23.70;85.40
40932;DHT22;36257;46.052;12.540;2022-09-09T09:26:07;23.70;84.90
40932;DHT22;36257;46.052;12.540;2022-09-09T09:28:35;23.80;86.00
40932;DHT22;36257;46.052;12.540;2022-09-09T09:31:09;23.90;85.70
40932;DHT22;36257;46.052;12.540;2022-09-09T09:33:38;24.20;84.80
40932;DHT22;36257;46.052;12.540;2022-09-09T09:36:08;24.40;83.90
40932;DHT22;36257;46.052;12.540;2022-09-09T09:38:34;24.50;84.70
40932;DHT22;36257;46.052;12.540;2022-09-09T09:41:01;24.50;83.50
40932;DHT22;36257;46.052;12.540;2022-09-09T09:43:32;24.50;83.10
40932;DHT22;36257;46.052;12.540;2022-09-09T09:45:58;24.70;84.70
40932;DHT22;36257;46.052;12.540;2022-09-09T09:48:26;25.00;82.70
40932;DHT22;36257;46.052;12.540;2022-09-09T09:50:57;25.10;81.90
40932;DHT22;36257;46.052;12.540;2022-09-09T09:53:32;25.20;82.90
40932;DHT22;36257;46.052;12.540;2022-09-09T09:56:03;25.20;82.10
40932;DHT22;36257;46.052;12.540;2022-09-09T10:03:54;26.00;79.40
40932;DHT22;36257;46.052;12.540;2022-09-09T10:06:36;26.60;77.40
40932;DHT22;36257;46.052;12.540;2022-09-09T10:09:17;27.00;77.30
40932;DHT22;36257;46.052;12.540;2022-09-09T10:22:39;26.10;78.20
40932;DHT22;36257;46.052;12.540;2022-09-09T10:36:28;25.70;80.00
40932;DHT22;36257;46.052;12.540;2022-09-09T10:38:58;26.10;79.90
40932;DHT22;36257;46.052;12.540;2022-09-09T10:41:40;26.60;78.50
40932;DHT22;36257;46.052;12.540;2022-09-09T10:53:36;27.90;75.50
40932;DHT22;36257;46.052;12.540;2022-09-09T10:55:50;27.90;74.00
40932;DHT22;36257;46.052;12.540;2022-09-09T10:58:38;27.90;74.20
40932;DHT22;36257;46.052;12.540;2022-09-09T11:02:05;28.10;74.00
40932;DHT22;36257;46.052;12.540;2022-09-09T11:04:23;28.10;73.20
40932;DHT22;36257;46.052;12.540;2022-09-09T11:06:54;28.10;74.10
40932;DHT22;36257;46.052;12.540;2022-09-09T11:09:28;28.00;75.30
40932;DHT22;36257;46.052;12.540;2022-09-09T11:11:57;27.90;73.70
40932;DHT22;36257;46.052;12.540;2022-09-09T11:14:45;27.60;73.80
40932;DHT22;36257;46.052;12.540;2022-09-09T11:17:22;27.10;74.10
40932;DHT22;36257;46.052;12.540;2022-09-09T11:19:49;26.70;75.30
40932;DHT22;36257;46.052;12.540;2022-09-09T11:24:57;26.00;77.10
40932;DHT22;36257;46.052;12.540;2022-09-09T11:27:50;25.80;78.50
40932;DHT22;36257;46.052;12.540;2022-09-09T11:30:32;25.80;78.70
40932;DHT22;36257;46.052;12.540;2022-09-09T11:40:40;27.60;74.10
40932;DHT22;36257;46.052;12.540;2022-09-09T11:43:12;27.50;73.40
40932;DHT22;36257;46.052;12.540;2022-09-09T11:45:41;27.40;73.90
40932;DHT22;36257;46.052;12.540;2022-09-09T11:48:28;27.20;73.40
40932;DHT22;36257;46.052;12.540;2022-09-09T11:50:59;26.90;73.70
40932;DHT22;36257;46.052;12.540;2022-09-09T11:53:29;26.60;74.20
40932;DHT22;36257;46.052;12.540;2022-09-09T11:56:07;26.50;75.30
40932;DHT22;36257;46.052;12.540;2022-09-09T11:58:42;26.40;75.80
40932;DHT22;36257;46.052;12.540;2022-09-09T12:01:16;26.30;75.60
40932;DHT22;36257;46.052;12.540;2022-09-09T12:04:01;26.30;75.80
40932;DHT22;36257;46.052;12.540;2022-09-09T12:06:32;26.30;76.70
40932;DHT22;36257;46.052;12.540;2022-09-09T12:09:13;26.70;76.10
40932;DHT22;36257;46.052;12.540;2022-09-09T12:11:41;27.40;75.00
40932;DHT22;36257;46.052;12.540;2022-09-09T12:14:22;28.00;73.50
40932;DHT22;36257;46.052;12.540;2022-09-09T12:16:48;28.40;70.30
40932;DHT22;36257;46.052;12.540;2022-09-09T12:19:22;28.30;69.70
40932;DHT22;36257;46.052;12.540;2022-09-09T12:24:48;27.90;71.90
40932;DHT22;36257;46.052;12.540;2022-09-09T12:27:31;27.80;72.30
40932;DHT22;36257;46.052;12.540;2022-09-09T12:30:27;28.00;72.30
40932;DHT22;36257;46.052;12.540;2022-09-09T12:33:06;28.50;71.90
40932;DHT22;36257;46.052;12.540;2022-09-09T12:35:34;28.80;71.10
40932;DHT22;36257;46.052;12.540;2022-09-09T12:38:05;28.80;70.00
40932;DHT22;36257;46.052;12.540;2022-09-09T12:40:36;28.60;69.70
40932;DHT22;36257;46.052;12.540;2022-09-09T12:43:20;28.30;69.80
40932;DHT22;36257;46.052;12.540;2022-09-09T12:45:51;28.30;70.40
40932;DHT22;36257;46.052;12.540;2022-09-09T12:48:30;28.40;71.10
40932;DHT22;36257;46.052;12.540;2022-09-09T12:50:57;28.70;68.70
40932;DHT22;36257;46.052;12.540;2022-09-09T12:53:34;28.70;69.20
40932;DHT22;36257;46.052;12.540;2022-09-09T12:56:06;28.70;69.20
40932;DHT22;36257;46.052;12.540;2022-09-09T12:58:33;28.50;69.70
40932;DHT22;36257;46.052;12.540;2022-09-09T13:01:01;28.30;69.80
40932;DHT22;36257;46.052;12.540;2022-09-09T13:03:28;28.10;70.10
40932;DHT22;36257;46.052;12.540;2022-09-09T13:05:58;28.00;71.10
40932;DHT22;36257;46.052;12.540;2022-09-09T13:08:25;27.70;71.00
40932;DHT22;36257;46.052;12.540;2022-09-09T13:11:12;27.60;71.30
40932;DHT22;36257;46.052;12.540;2022-09-09T13:13:41;27.50;71.60
40932;DHT22;36257;46.052;12.540;2022-09-09T13:18:47;27.40;71.50
40932;DHT22;36257;46.052;12.540;2022-09-09T13:21:13;27.20;72.30
40932;DHT22;36257;46.052;12.540;2022-09-09T13:23:39;27.20;73.40
40932;DHT22;36257;46.052;12.540;2022-09-09T13:26:26;27.20;73.30
40932;DHT22;36257;46.052;12.540;2022-09-09T13:28:53;27.30;72.90
40932;DHT22;36257;46.052;12.540;2022-09-09T13:31:29;27.20;73.00
40932;DHT22;36257;46.052;12.540;2022-09-09T13:33:55;27.10;72.70
40932;DHT22;36257;46.052;12.540;2022-09-09T13:36:32;26.90;73.50
40932;DHT22;36257;46.052;12.540;2022-09-09T13:39:01;26.60;73.00
40932;DHT22;36257;46.052;12.540;2022-09-09T13:41:42;26.40;73.50
40932;DHT22;36257;46.052;12.540;2022-09-09T13:44:25;26.30;73.60
40932;DHT22;36257;46.052;12.540;2022-09-09T13:47:21;26.10;74.40
40932;DHT22;36257;46.052;12.540;2022-09-09T13:49:51;26.10;74.50
40932;DHT22;36257;46.052;12.540;2022-09-09T13:52:18;26.10;75.50
40932;DHT22;36257;46.052;12.540;2022-09-09T13:54:51;26.10;74.70
40932;DHT22;36257;46.052;12.540;2022-09-09T13:57:24;26.20;73.80
40932;DHT22;36257;46.052;12.540;2022-09-09T13:59:52;26.20;74.40
40932;DHT22;36257;46.052;12.540;2022-09-09T14:02:18;26.20;74.90
40932;DHT22;36257;46.052;12.540;2022-09-09T14:04:44;26.10;75.50
40932;DHT22;36257;46.052;12.540;2022-09-09T14:07:14;26.10;75.70
40932;DHT22;36257;46.052;12.540;2022-09-09T14:09:40;26.10;75.70
40932;DHT22;36257;46.052;12.540;2022-09-09T14:12:12;26.10;75.70
40932;DHT22;36257;46.052;12.540;2022-09-09T14:14:39;26.00;75.70
40932;DHT22;36257;46.052;12.540;2022-09-09T14:17:04;25.90;75.60
40932;DHT22;36257;46.052;12.540;2022-09-09T14:19:30;25.90;76.20
40932;DHT22;36257;46.052;12.540;2022-09-09T14:21:57;25.80;76.60
40932;DHT22;36257;46.052;12.540;2022-09-09T14:24:22;25.80;76.60
40932;DHT22;36257;46.052;12.540;2022-09-09T14:26:51;25.80;76.50
40932;DHT22;36257;46.052;12.540;2022-09-09T14:29:17;25.80;75.70
40932;DHT22;36257;46.052;12.540;2022-09-09T14:31:42;25.60;76.60
40932;DHT22;36257;46.052;12.540;2022-09-09T14:34:08;25.60;77.10
40932;DHT22;36257;46.052;12.540;2022-09-09T14:36:36;25.50;78.10
40932;DHT22;36257;46.052;12.540;2022-09-09T14:39:03;25.50;79.20
40932;DHT22;36257;46.052;12.540;2022-09-09T14:41:29;25.40;79.60
40932;DHT22;36257;46.052;12.540;2022-09-09T14:43:55;25.30;80.20
40932;DHT22;36257;46.052;12.540;2022-09-09T14:46:21;25.30;80.30
40932;DHT22;36257;46.052;12.540;2022-09-09T14:48:47;25.20;81.40
40932;DHT22;36257;46.052;12.540;2022-09-09T14:51:19;25.20;81.70
40932;DHT22;36257;46.052;12.540;2022-09-09T14:53:45;25.20;81.40
40932;DHT22;36257;46.052;12.540;2022-09-09T14:56:14;25.20;82.20
40932;DHT22;36257;46.052;12.540;2022-09-09T14:58:39;25.10;82.60
40932;DHT22;36257;46.052;12.540;2022-09-09T15:01:10;25.00;82.50
40932;DHT22;36257;46.052;12.540;2022-09-09T15:03:36;24.90;83.20
40932;DHT22;36257;46.052;12.540;2022-09-09T15:06:13;24.80;83.80
40932;DHT22;36257;46.052;12.540;2022-09-09T15:08:42;24.80;83.30
40932;DHT22;36257;46.052;12.540;2022-09-09T15:11:10;24.80;83.20
40932;DHT22;36257;46.052;12.540;2022-09-09T15:13:37;24.70;84.00
40932;DHT22;36257;46.052;12.540;2022-09-09T15:16:06;24.60;87.60
40932;DHT22;36257;46.052;12.540;2022-09-09T15:18:33;24.50;87.50
40932;DHT22;36257;46.052;12.540;2022-09-09T15:20:59;24.50;88.40
40932;DHT22;36257;46.052;12.540;2022-09-09T15:23:27;24.50;88.80
40932;DHT22;36257;46.052;12.540;2022-09-09T15:25:54;24.40;87.50
40932;DHT22;36257;46.052;12.540;2022-09-09T15:28:20;24.30;89.60
40932;DHT22;36257;46.052;12.540;2022-09-09T15:30:53;24.20;90.60
40932;DHT22;36257;46.052;12.540;2022-09-09T15:33:20;24.20;89.30
40932;DHT22;36257;46.052;12.540;2022-09-09T15:35:45;24.20;91.60
40932;DHT22;36257;46.052;12.540;2022-09-09T15:38:11;24.30;90.80
40932;DHT22;36257;46.052;12.540;2022-09-09T15:40:42;24.30;90.20
40932;DHT22;36257;46.052;12.540;2022-09-09T15:43:08;24.30;92.70
40932;DHT22;36257;46.052;12.540;2022-09-09T15:45:36;24.30;92.70
40932;DHT22;36257;46.052;12.540;2022-09-09T15:48:05;24.30;89.20
40932;DHT22;36257;46.052;12.540;2022-09-09T15:50:30;24.20;91.10
40932;DHT22;36257;46.052;12.540;2022-09-09T15:52:57;24.30;91.40
40932;DHT22;36257;46.052;12.540;2022-09-09T15:55:22;24.30;92.40
40932;DHT22;36257;46.052;12.540;2022-09-09T15:57:50;24.40;91.20
40932;DHT22;36257;46.052;12.540;2022-09-09T16:00:18;24.50;91.30
40932;DHT22;36257;46.052;12.540;2022-09-09T16:02:46;24.50;87.40
40932;DHT22;36257;46.052;12.540;2022-09-09T16:05:12;24.40;88.40
40932;DHT22;36257;46.052;12.540;2022-09-09T16:07:37;24.40;87.60
40932;DHT22;36257;46.052;12.540;2022-09-09T16:10:03;24.30;86.40
40932;DHT22;36257;46.052;12.540;2022-09-09T16:12:29;24.10;87.10
40932;DHT22;36257;46.052;12.540;2022-09-09T16:14:55;24.10;87.30
40932;DHT22;36257;46.052;12.540;2022-09-09T16:17:21;23.90;87.10
40932;DHT22;36257;46.052;12.540;2022-09-09T16:19:46;23.80;88.00
40932;DHT22;36257;46.052;12.540;2022-09-09T16:22:12;23.70;87.80
40932;DHT22;36257;46.052;12.540;2022-09-09T16:24:40;23.40;86.70
40932;DHT22;36257;46.052;12.540;2022-09-09T16:27:06;23.20;86.80
40932;DHT22;36257;46.052;12.540;2022-09-09T16:29:32;23.00;86.90
40932;DHT22;36257;46.052;12.540;2022-09-09T16:31:57;22.90;87.10
40932;DHT22;36257;46.052;12.540;2022-09-09T16:34:24;22.80;87.30
40932;DHT22;36257;46.052;12.540;2022-09-09T16:36:50;22.60;88.00
40932;DHT22;36257;46.052;12.540;2022-09-09T16:39:19;22.50;88.10
40932;DHT22;36257;46.052;12.540;2022-09-09T16:41:46;22.40;88.00
40932;DHT22;36257;46.052;12.540;2022-09-09T16:44:14;22.30;88.50
40932;DHT22;36257;46.052;12.540;2022-09-09T16:46:42;22.20;89.10
40932;DHT22;36257;46.052;12.540;2022-09-09T16:49:10;22.10;89.70
40932;DHT22;36257;46.052;12.540;2022-09-09T16:51:44;22.10;90.20
40932;DHT22;36257;46.052;12.540;2022-09-09T16:54:10;22.10;90.50
40932;DHT22;36257;46.052;12.540;2022-09-09T16:56:38;22.00;90.70
40932;DHT22;36257;46.052;12.540;2022-09-09T16:59:08;22.00;90.80
40932;DHT22;36257;46.052;12.540;2022-09-09T17:01:36;22.20;90.60
40932;DHT22;36257;46.052;12.540;2022-09-09T17:04:05;22.20;90.70
40932;DHT22;36257;46.052;12.540;2022-09-09T17:06:32;22.20;91.10
40932;DHT22;36257;46.052;12.540;2022-09-09T17:09:07;22.20;91.30
40932;DHT22;36257;46.052;12.540;2022-09-09T17:11:34;22.20;91.10
40932;DHT22;36257;46.052;12.540;2022-09-09T17:14:01;22.20;91.00
40932;DHT22;36257;46.052;12.540;2022-09-09T17:16:29;22.20;91.00
40932;DHT22;36257;46.052;12.540;2022-09-09T17:18:56;22.10;91.10
40932;DHT22;36257;46.052;12.540;2022-09-09T17:21:24;22.00;91.10
40932;DHT22;36257;46.052;12.540;2022-09-09T17:23:51;22.00;91.30
40932;DHT22;36257;46.052;12.540;2022-09-09T17:26:19;21.90;91.90